createdAt,value
2022-11-20T00:03:12.274Z,67.50
2022-11-20T00:08:35.133Z,65.50
2022-11-20T00:13:58.593Z,77.30
2022-11-20T00:19:20.955Z,72.00
2022-11-20T00:24:43.382Z,119.00
2022-11-20T00:30:10.008Z,120.30
2022-11-20T00:35:34.415Z,114.30
2022-11-20T00:40:58.635Z,109.60
2022-11-20T00:46:23.044Z,112.50
2022-11-20T00:51:44.869Z,109.90
2022-11-20T00:57:06.873Z,108.80
2022-11-20T01:02:28.755Z,79.50
2022-11-20T01:07:50.731Z,72.60
2022-11-20T01:13:30.755Z,74.80
2022-11-20T01:18:54.577Z,61.20
2022-11-20T01:24:18.790Z,69.30
2022-11-20T01:29:40.727Z,60.90
2022-11-20T01:35:03.071Z,56.90
2022-11-20T01:40:24.986Z,80.60
2022-11-20T01:46:17.312Z,67.20
2022-11-20T01:51:52.187Z,100.90
2022-11-20T01:57:14.829Z,84.30
2022-11-20T02:02:38.263Z,86.10
2022-11-20T02:08:00.694Z,89.30
2022-11-20T02:13:41.698Z,88.00
2022-11-20T02:19:05.727Z,70.50
2022-11-20T02:24:27.511Z,55.60
2022-11-20T02:29:53.303Z,58.20
2022-11-20T02:35:20.750Z,64.20
2022-11-20T02:40:43.379Z,71.40
2022-11-20T02:46:09.331Z,79.70
2022-11-20T02:51:31.553Z,80.90
2022-11-20T02:56:53.884Z,69.20
2022-11-20T03:02:15.822Z,75.90
2022-11-20T03:07:37.979Z,56.20
2022-11-20T03:12:59.932Z,66.20
2022-11-20T03:18:21.902Z,69.90
2022-11-20T03:23:43.931Z,70.40
2022-11-20T03:29:06.563Z,60.00
2022-11-20T03:34:28.464Z,59.60
2022-11-20T03:39:50.250Z,56.70
2022-11-20T03:45:13.403Z,57.40
2022-11-20T03:50:34.985Z,64.50
2022-11-20T03:55:57.015Z,57.80
2022-11-20T04:01:21.227Z,63.30
2022-11-20T04:06:43.066Z,37.80
2022-11-20T04:12:05.521Z,39.00
2022-11-20T04:17:27.339Z,43.90
2022-11-20T04:22:49.478Z,32.10
2022-11-20T04:28:11.499Z,35.40
2022-11-20T04:33:34.581Z,56.40
2022-11-20T04:39:07.182Z,37.60
2022-11-20T04:44:29.028Z,34.70
2022-11-20T04:49:50.919Z,31.00
2022-11-20T04:55:12.686Z,43.30
2022-11-20T05:00:34.715Z,35.70
2022-11-20T05:05:56.946Z,31.90
2022-11-20T05:11:21.283Z,30.50
2022-11-20T05:16:43.355Z,53.30
2022-11-20T05:22:06.200Z,36.80
2022-11-20T05:27:28.579Z,41.40
2022-11-20T05:32:50.259Z,36.60
2022-11-20T05:38:12.446Z,30.40
2022-11-20T05:43:35.874Z,36.20
2022-11-20T05:48:59.014Z,40.40
2022-11-20T05:54:21.014Z,43.60
2022-11-20T05:59:43.932Z,41.50
2022-11-20T06:05:06.444Z,60.70
2022-11-20T06:10:28.228Z,65.80
2022-11-20T06:15:54.169Z,58.90
2022-11-20T06:21:20.871Z,74.00
2022-11-20T06:26:43.052Z,86.60
2022-11-20T06:32:05.387Z,76.50
2022-11-20T06:37:27.205Z,40.70
2022-11-20T06:42:49.171Z,59.50
2022-11-20T06:48:11.015Z,38.70
2022-11-20T06:53:33.696Z,45.10
2022-11-20T06:58:55.429Z,48.10
2022-11-20T07:04:16.969Z,46.20
2022-11-20T07:09:38.837Z,56.30
2022-11-20T07:15:00.714Z,53.90
2022-11-20T07:20:22.822Z,53.00
2022-11-20T07:25:44.895Z,64.40
2022-11-20T07:31:08.531Z,55.70
2022-11-20T07:36:30.566Z,60.20
2022-11-20T07:41:52.565Z,85.40
2022-11-20T07:47:14.239Z,64.40
2022-11-20T07:52:36.423Z,71.90
2022-11-20T07:57:58.654Z,76.40
2022-11-20T08:03:24.599Z,58.60
2022-11-20T08:08:46.930Z,57.90
2022-11-20T08:14:14.718Z,61.00
2022-11-20T08:19:38.816Z,55.50
2022-11-20T08:25:00.746Z,45.40
2022-11-20T08:30:22.574Z,43.90
2022-11-20T08:35:44.337Z,34.90
2022-11-20T08:41:24.680Z,40.40
2022-11-20T08:46:48.255Z,33.30
2022-11-20T08:52:09.760Z,31.30
2022-11-20T08:57:38.413Z,29.00
2022-11-20T09:03:02.295Z,37.60
2022-11-20T09:08:24.608Z,34.30
2022-11-20T09:13:46.408Z,37.00
2022-11-20T09:19:34.064Z,39.30
2022-11-20T09:24:50.339Z,42.80
2022-11-20T09:30:14.004Z,40.70
2022-11-20T09:35:35.903Z,44.90
2022-11-20T09:40:59.879Z,37.30
2022-11-20T09:46:48.761Z,40.30
2022-11-20T09:52:42.510Z,51.10
2022-11-20T09:58:07.845Z,49.70
2022-11-20T10:04:25.569Z,43.80
2022-11-20T10:10:05.881Z,42.30
2022-11-20T10:15:55.091Z,36.80
2022-11-20T10:22:02.277Z,32.20
2022-11-20T10:27:34.026Z,25.40
2022-11-20T10:33:17.645Z,27.90
2022-11-20T10:38:43.709Z,31.10
2022-11-20T10:44:40.442Z,24.80
2022-11-20T10:50:05.954Z,32.00
2022-11-20T10:55:46.727Z,20.60
2022-11-20T11:01:17.487Z,25.70
2022-11-20T11:06:44.104Z,25.70
2022-11-20T11:12:12.642Z,23.80
2022-11-20T11:22:58.502Z,21.80
2022-11-20T11:28:26.992Z,25.20
2022-11-20T11:33:49.185Z,22.00
2022-11-20T11:39:16.059Z,26.10
2022-11-20T11:44:56.551Z,26.20
2022-11-20T11:50:22.443Z,22.20
2022-11-20T11:56:16.611Z,28.10
2022-11-20T12:01:50.163Z,30.70
2022-11-20T12:13:07.378Z,31.50
2022-11-20T12:18:29.790Z,32.80
2022-11-20T12:23:54.469Z,31.30
2022-11-20T12:29:25.703Z,32.80
2022-11-20T12:35:11.404Z,31.30
2022-11-20T12:40:42.776Z,28.80
2022-11-20T12:46:26.713Z,32.60
2022-11-20T12:52:22.375Z,35.80
2022-11-20T12:57:52.878Z,32.60
2022-11-20T13:03:20.279Z,28.00
2022-11-20T13:08:44.442Z,27.80
2022-11-20T13:14:36.098Z,33.50
2022-11-20T13:19:59.887Z,32.40
2022-11-20T13:25:33.153Z,33.30
2022-11-20T13:30:56.036Z,34.00
2022-11-20T13:36:24.417Z,36.90
2022-11-20T13:41:55.851Z,38.20
2022-11-20T13:47:30.123Z,36.00
2022-11-20T13:53:02.990Z,37.70
2022-11-20T13:58:34.152Z,44.40
2022-11-20T14:04:11.133Z,38.50
2022-11-20T14:09:34.369Z,34.80
2022-11-20T14:14:56.741Z,36.30
2022-11-20T14:20:24.147Z,31.80
2022-11-20T14:25:46.278Z,37.10
2022-11-20T14:31:20.250Z,35.00
2022-11-20T14:36:44.213Z,34.60
2022-11-20T14:42:17.003Z,32.70
2022-11-20T14:47:39.858Z,33.80
2022-11-20T14:53:02.318Z,38.70
2022-11-20T14:58:27.302Z,42.50
2022-11-20T15:04:19.123Z,41.90
2022-11-20T15:09:40.983Z,36.90
2022-11-20T15:15:04.422Z,29.40
2022-11-20T15:20:32.305Z,29.00
2022-11-20T15:25:53.870Z,30.20
2022-11-20T15:31:18.539Z,28.30
2022-11-20T15:36:41.108Z,30.90
2022-11-20T15:42:02.536Z,32.00
2022-11-20T15:47:29.398Z,31.00
2022-11-20T15:52:51.681Z,26.10
2022-11-20T15:58:14.451Z,25.40
2022-11-20T16:03:36.326Z,29.60
2022-11-20T16:08:58.206Z,29.70
2022-11-20T16:14:38.608Z,29.00
2022-11-20T16:20:00.547Z,27.30
2022-11-20T16:25:22.454Z,29.40
2022-11-20T16:30:44.685Z,34.00
2022-11-20T16:36:14.841Z,29.20
2022-11-20T16:41:37.582Z,43.40
2022-11-20T16:46:59.202Z,31.70
2022-11-20T16:52:20.830Z,32.90
2022-11-20T16:57:42.821Z,26.80
2022-11-20T17:03:06.213Z,28.30
2022-11-20T17:08:30.633Z,28.00
2022-11-20T17:13:52.843Z,32.20
2022-11-20T17:19:15.795Z,31.40
2022-11-20T17:24:37.450Z,29.90
2022-11-20T17:29:59.356Z,36.50
2022-11-20T17:35:21.291Z,51.70
2022-11-20T17:40:43.212Z,34.60
2022-11-20T17:46:13.030Z,32.00
2022-11-20T17:51:35.419Z,29.10
2022-11-20T17:57:16.192Z,29.80
2022-11-20T18:02:38.127Z,32.50
2022-11-20T18:08:00.089Z,44.60
2022-11-20T18:13:45.008Z,40.50
2022-11-20T18:19:12.063Z,42.60
2022-11-20T18:24:34.415Z,46.80
2022-11-20T18:29:58.982Z,42.20
2022-11-20T18:35:20.857Z,66.10
2022-11-20T18:40:42.619Z,41.70
2022-11-20T18:46:04.970Z,33.50
2022-11-20T18:51:26.715Z,34.20
2022-11-20T18:56:48.834Z,39.40
2022-11-20T19:02:16.279Z,43.70
2022-11-20T19:07:38.163Z,35.50
2022-11-20T19:13:00.537Z,46.60
2022-11-20T19:18:22.377Z,36.90
2022-11-20T19:23:48.226Z,36.00
2022-11-20T19:29:15.618Z,35.30
2022-11-20T19:34:37.687Z,40.00
2022-11-20T19:39:59.854Z,38.60
2022-11-20T19:45:21.950Z,33.30
2022-11-20T19:50:43.830Z,32.90
2022-11-20T19:56:06.409Z,32.40
2022-11-20T20:01:30.904Z,35.40
2022-11-20T20:06:52.595Z,39.10
2022-11-20T20:12:14.708Z,39.20
2022-11-20T20:17:36.788Z,43.90
2022-11-20T20:22:58.868Z,39.70
2022-11-20T20:28:20.494Z,45.50
2022-11-20T20:33:43.496Z,38.00
2022-11-20T20:39:05.060Z,39.10
2022-11-20T20:44:45.248Z,39.90
2022-11-20T20:50:10.855Z,39.00
2022-11-20T20:55:34.224Z,39.40
2022-11-20T21:01:02.318Z,40.50
2022-11-20T21:06:24.633Z,38.10
2022-11-20T21:11:46.376Z,39.30
2022-11-20T21:17:13.698Z,38.90
2022-11-20T21:22:36.923Z,35.80
2022-11-20T21:27:58.475Z,40.80
2022-11-20T21:33:20.378Z,35.00
2022-11-20T21:38:42.808Z,32.00
2022-11-20T21:49:48.050Z,36.20
2022-11-20T21:55:10.080Z,43.70
2022-11-20T22:00:31.798Z,48.20
2022-11-20T22:05:57.545Z,42.90
2022-11-20T22:11:21.398Z,48.60
2022-11-20T22:16:43.407Z,49.60
2022-11-20T22:22:05.435Z,49.60
2022-11-20T22:27:26.935Z,48.40
2022-11-20T22:32:48.896Z,89.50
2022-11-20T22:38:10.923Z,69.30
2022-11-20T22:43:33.423Z,81.00
2022-11-20T22:49:01.893Z,50.20
2022-11-20T22:59:46.221Z,47.50
2022-11-20T23:05:08.397Z,60.10
2022-11-20T23:10:30.157Z,47.40
2022-11-20T23:15:52.142Z,39.90
2022-11-20T23:21:16.983Z,66.10
2022-11-20T23:26:41.283Z,63.80
2022-11-20T23:32:03.186Z,48.30
2022-11-20T23:37:25.219Z,46.90
2022-11-20T23:43:06.089Z,41.50
2022-11-20T23:48:32.535Z,41.70
2022-11-20T23:53:54.263Z,43.70
2022-11-20T23:59:15.847Z,40.30
